createdAt,value
2019-04-21T00:00:39.694Z,100350.17
2019-04-21T00:03:09.918Z,100347.97
2019-04-21T00:05:55.860Z,100341.33
2019-04-21T00:08:37.074Z,100338.48
2019-04-21T00:10:54.013Z,100333.34
2019-04-21T00:13:12.017Z,100332.89
2019-04-21T00:15:34.513Z,100336.08
2019-04-21T00:17:57.050Z,100340.47
2019-04-21T00:20:35.283Z,100331.72
2019-04-21T00:23:10.220Z,100329.47
2019-04-21T00:25:34.852Z,100323.33
2019-04-21T00:28:09.222Z,100324.23
2019-04-21T00:30:42.469Z,100319.78
2019-04-21T00:32:53.971Z,100318.80
2019-04-21T00:35:15.917Z,100321.28
2019-04-21T00:38:00.346Z,100319.30
2019-04-21T00:40:27.765Z,100313.56
2019-04-21T00:42:52.469Z,100313.87
2019-04-21T00:45:16.823Z,100304.91
2019-04-21T00:47:48.043Z,100300.29
2019-04-21T00:50:17.913Z,100295.14
2019-04-21T00:52:57.597Z,100291.96
2019-04-21T00:55:27.674Z,100287.45
2019-04-21T00:57:45.466Z,100289.78
2019-04-21T01:00:16.135Z,100285.52
2019-04-21T01:02:46.819Z,100283.91
2019-04-21T01:05:11.159Z,100289.42
2019-04-21T01:07:31.517Z,100278.83
2019-04-21T01:09:53.973Z,100278.05
2019-04-21T01:12:25.473Z,100277.97
2019-04-21T01:15:04.915Z,100273.09
2019-04-21T01:17:25.807Z,100268.92
2019-04-21T01:19:47.075Z,100267.37
2019-04-21T01:21:57.271Z,100266.56
2019-04-21T01:24:31.892Z,100265.99
2019-04-21T01:27:01.029Z,100262.92
2019-04-21T01:29:41.395Z,100256.30
2019-04-21T01:32:12.882Z,100252.08
2019-04-21T01:34:39.192Z,100254.67
2019-04-21T01:36:58.859Z,100247.69
2019-04-21T01:39:34.517Z,100256.22
2019-04-21T01:41:58.827Z,100251.64
2019-04-21T01:44:29.797Z,100252.21
2019-04-21T01:46:49.330Z,100252.63
2019-04-21T01:49:13.057Z,100250.35
2019-04-21T01:51:59.333Z,100249.42
2019-04-21T01:54:22.029Z,100244.48
2019-04-21T01:56:51.346Z,100245.75
2019-04-21T01:59:06.883Z,100241.45
2019-04-21T02:01:46.062Z,100242.36
2019-04-21T02:04:13.808Z,100236.80
2019-04-21T02:06:45.585Z,100239.75
2019-04-21T02:09:10.152Z,100236.42
2019-04-21T02:11:43.233Z,100240.90
2019-04-21T02:14:29.886Z,100236.65
2019-04-21T02:16:34.518Z,100235.66
2019-04-21T02:18:58.876Z,100234.87
2019-04-21T02:21:24.495Z,100231.58
2019-04-21T02:23:58.739Z,100236.94
2019-04-21T02:26:31.570Z,100235.86
2019-04-21T02:28:57.479Z,100237.27
2019-04-21T02:31:37.617Z,100232.12
2019-04-21T02:41:21.473Z,100234.80
2019-04-21T02:43:52.457Z,100234.44
2019-04-21T02:46:23.867Z,100230.06
2019-04-21T02:48:50.870Z,100231.94
2019-04-21T02:51:17.506Z,100231.45
2019-04-21T02:54:03.793Z,100223.47
2019-04-21T02:56:11.662Z,100225.42
2019-04-21T02:58:44.036Z,100223.14
2019-04-21T03:01:23.879Z,100213.65
2019-04-21T03:06:32.968Z,100211.09
2019-04-21T03:08:58.805Z,100208.67
2019-04-21T03:11:35.021Z,100203.70
2019-04-21T03:13:58.025Z,100193.63
2019-04-21T03:16:23.551Z,100191.34
2019-04-21T03:18:54.643Z,100192.14
2019-04-21T03:21:16.309Z,100189.12
2019-04-21T03:26:20.501Z,100181.30
2019-04-21T03:28:36.887Z,100177.92
2019-04-21T03:36:38.454Z,100176.36
2019-04-21T03:38:38.491Z,100187.23
2019-04-21T03:40:57.750Z,100178.11
2019-04-21T03:48:27.038Z,100168.84
2019-04-21T03:50:59.009Z,100173.62
2019-04-21T03:53:18.609Z,100179.59
2019-04-21T03:55:53.174Z,100170.19
2019-04-21T03:58:28.071Z,100168.93
2019-04-21T04:01:02.788Z,100173.38
2019-04-21T04:08:57.579Z,100151.09
2019-04-21T04:11:19.681Z,100166.06
2019-04-21T04:16:10.165Z,100161.43
2019-04-21T04:18:46.745Z,100156.59
2019-04-21T04:21:13.036Z,100153.63
2019-04-21T04:23:41.682Z,100157.69
2019-04-21T04:26:00.357Z,100159.42
2019-04-21T04:28:39.846Z,100160.97
2019-04-21T04:30:52.425Z,100160.15
2019-04-21T04:33:34.405Z,100152.43
2019-04-21T04:36:05.934Z,100149.95
2019-04-21T04:38:22.360Z,100154.28
2019-04-21T04:40:59.806Z,100149.72
2019-04-21T04:48:13.591Z,100156.17
2019-04-21T04:53:13.594Z,100143.06
2019-04-21T04:55:41.010Z,100145.55
2019-04-21T04:58:22.179Z,100143.26
2019-04-21T05:00:35.004Z,100144.76
2019-04-21T05:02:56.023Z,100135.44
2019-04-21T05:07:57.299Z,100138.34
2019-04-21T05:10:31.103Z,100137.36
2019-04-21T05:12:50.976Z,100137.12
2019-04-21T05:15:12.639Z,100131.82
2019-04-21T05:17:48.509Z,100134.48
2019-04-21T05:20:11.590Z,100135.20
2019-04-21T05:22:35.518Z,100133.30
2019-04-21T05:24:56.624Z,100128.50
2019-04-21T05:27:25.638Z,100128.97
2019-04-21T05:30:00.003Z,100128.92
2019-04-21T05:32:36.095Z,100124.60
2019-04-21T05:34:56.953Z,100124.17
2019-04-21T05:37:25.765Z,100128.66
2019-04-21T05:39:53.143Z,100125.00
2019-04-21T05:42:11.022Z,100127.25
2019-04-21T05:44:58.776Z,100125.36
2019-04-21T05:49:46.645Z,100129.21
2019-04-21T05:52:08.152Z,100131.89
2019-04-21T05:54:53.055Z,100127.52
2019-04-21T05:57:09.926Z,100123.15
2019-04-21T05:59:51.541Z,100120.12
2019-04-21T06:02:16.600Z,100119.77
2019-04-21T06:04:54.782Z,100124.30
2019-04-21T06:07:13.968Z,100128.50
2019-04-21T06:09:39.972Z,100127.61
2019-04-21T06:11:56.721Z,100124.45
2019-04-21T06:14:29.404Z,100124.02
2019-04-21T06:16:55.667Z,100131.06
2019-04-21T06:19:31.167Z,100129.65
2019-04-21T06:21:44.787Z,100125.13
2019-04-21T06:24:15.747Z,100124.09
2019-04-21T06:29:14.986Z,100122.41
2019-04-21T06:34:08.086Z,100120.23
2019-04-21T06:36:42.285Z,100119.48
2019-04-21T06:44:03.024Z,100120.95
2019-04-21T06:46:44.815Z,100116.54
2019-04-21T06:49:01.289Z,100124.16
2019-04-21T06:51:27.305Z,100122.65
2019-04-21T06:53:59.339Z,100115.13
2019-04-21T06:56:27.129Z,100113.30
2019-04-21T06:58:42.833Z,100113.51
2019-04-21T07:01:21.631Z,100109.78
2019-04-21T07:03:48.667Z,100114.30
2019-04-21T07:06:12.591Z,100117.95
2019-04-21T07:08:44.691Z,100118.47
2019-04-21T07:11:03.965Z,100121.91
2019-04-21T07:13:30.964Z,100114.59
2019-04-21T07:16:05.585Z,100108.37
2019-04-21T07:18:29.801Z,100105.62
2019-04-21T07:20:53.181Z,100113.59
2019-04-21T07:23:26.202Z,100103.80
2019-04-21T07:25:51.423Z,100105.03
2019-04-21T07:28:22.006Z,100103.97
2019-04-21T07:30:45.330Z,100103.59
2019-04-21T07:33:33.583Z,100100.11
2019-04-21T07:35:38.377Z,100101.11
2019-04-21T07:38:04.378Z,100096.93
2019-04-21T07:40:29.058Z,100095.38
2019-04-21T07:42:59.081Z,100091.10
2019-04-21T07:45:22.458Z,100093.56
2019-04-21T07:47:59.269Z,100093.66
2019-04-21T07:50:33.165Z,100086.73
2019-04-21T07:53:05.203Z,100087.20
2019-04-21T07:57:47.492Z,100078.32
2019-04-21T08:02:49.699Z,100076.91
2019-04-21T08:07:53.808Z,100074.27
2019-04-21T08:10:10.507Z,100064.39
2019-04-21T08:12:36.318Z,100069.27
2019-04-21T08:15:18.102Z,100057.95
2019-04-21T08:17:38.316Z,100059.27
2019-04-21T08:19:59.081Z,100061.96
2019-04-21T08:22:33.490Z,100060.19
2019-04-21T08:24:59.393Z,100060.19
2019-04-21T08:27:32.397Z,100055.03
2019-04-21T08:29:52.170Z,100051.55
2019-04-21T08:32:28.325Z,100049.34
2019-04-21T08:34:54.876Z,100043.17
2019-04-21T08:37:18.190Z,100039.83
2019-04-21T08:39:59.707Z,100043.51
2019-04-21T08:42:13.206Z,100038.59
2019-04-21T08:44:45.204Z,100040.73
2019-04-21T08:47:14.141Z,100039.59
2019-04-21T08:49:39.261Z,100036.52
2019-04-21T08:52:34.675Z,100037.89
2019-04-21T08:54:32.689Z,100040.10
2019-04-21T08:57:10.404Z,100038.13
2019-04-21T08:59:50.674Z,100035.14
2019-04-21T09:02:23.634Z,100020.84
2019-04-21T09:04:50.820Z,100025.16
2019-04-21T09:07:22.723Z,100020.88
2019-04-21T09:09:44.439Z,100017.84
2019-04-21T09:12:10.580Z,100019.70
2019-04-21T09:14:39.549Z,100017.28
2019-04-21T09:17:00.459Z,100020.63
2019-04-21T09:19:44.327Z,100013.31
2019-04-21T09:22:02.358Z,100024.00
2019-04-21T09:24:26.692Z,100010.53
2019-04-21T09:26:51.410Z,100008.02
2019-04-21T09:29:16.034Z,100007.73
2019-04-21T09:31:39.203Z,100009.94
2019-04-21T09:34:03.206Z,100010.37
2019-04-21T09:36:36.205Z,100005.30
2019-04-21T09:39:00.051Z,99999.07
2019-04-21T09:41:25.532Z,100002.51
2019-04-21T09:43:53.662Z,100000.83
2019-04-21T09:46:18.542Z,99990.28
2019-04-21T09:48:53.791Z,99990.27
2019-04-21T09:51:13.114Z,99977.72
2019-04-21T09:53:42.225Z,99979.84
2019-04-21T09:56:11.765Z,99979.56
2019-04-21T09:58:40.720Z,99973.40
2019-04-21T10:01:12.313Z,99972.62
2019-04-21T10:03:39.625Z,99966.52
2019-04-21T10:05:58.732Z,99963.58
2019-04-21T10:08:25.535Z,99961.69
2019-04-21T10:10:53.029Z,99955.61
2019-04-21T10:13:23.057Z,99947.41
2019-04-21T10:15:51.911Z,99950.80
2019-04-21T10:18:21.527Z,99939.98
2019-04-21T10:20:49.044Z,99938.67
2019-04-21T10:23:15.626Z,99930.19
2019-04-21T10:25:43.322Z,99927.35
2019-04-21T10:28:11.007Z,99924.29
2019-04-21T10:30:38.545Z,99922.09
2019-04-21T10:33:06.178Z,99918.83
2019-04-21T10:35:33.532Z,99920.16
2019-04-21T10:38:12.913Z,99910.83
2019-04-21T10:40:32.042Z,99905.95
2019-04-21T10:42:56.397Z,99908.69
2019-04-21T10:45:25.107Z,99905.03
2019-04-21T10:47:52.705Z,99903.11
2019-04-21T10:50:18.830Z,99895.00
2019-04-21T10:52:53.152Z,99890.48
2019-04-21T10:55:36.710Z,99889.76
2019-04-21T10:57:52.717Z,99884.70
2019-04-21T11:00:20.059Z,99876.85
2019-04-21T11:02:48.711Z,99874.80
2019-04-21T11:05:16.478Z,99871.63
2019-04-21T11:07:55.222Z,99866.13
2019-04-21T11:10:14.049Z,99867.53
2019-04-21T11:12:41.400Z,99862.50
2019-04-21T11:15:09.293Z,99857.16
2019-04-21T11:17:36.455Z,99853.48
2019-04-21T11:20:04.569Z,99846.14
2019-04-21T11:22:34.943Z,99852.62
2019-04-21T11:25:00.989Z,99848.20
2019-04-21T11:27:28.851Z,99849.97
2019-04-21T11:29:56.058Z,99838.38
2019-04-21T11:32:23.651Z,99839.73
2019-04-21T11:34:51.517Z,99835.23
2019-04-21T11:37:19.847Z,99836.20
2019-04-21T11:39:55.036Z,99837.77
2019-04-21T11:42:15.609Z,99831.66
2019-04-21T11:44:42.094Z,99828.56
2019-04-21T11:47:10.292Z,99824.27
2019-04-21T11:49:37.155Z,99827.47
2019-04-21T11:52:04.916Z,99824.09
2019-04-21T11:54:32.913Z,99825.22
2019-04-21T11:57:03.077Z,99814.80
2019-04-21T11:59:27.983Z,99813.81
2019-04-21T12:01:54.920Z,99803.17
2019-04-21T12:04:23.459Z,99806.27
2019-04-21T12:06:52.183Z,99805.72
2019-04-21T12:09:18.846Z,99805.34
2019-04-21T12:11:45.391Z,99803.44
2019-04-21T12:14:12.630Z,99790.27
2019-04-21T12:16:41.249Z,99795.94
2019-04-21T12:19:09.182Z,99791.78
2019-04-21T12:21:50.514Z,99782.03
2019-04-21T12:24:03.607Z,99784.20
2019-04-21T12:26:31.966Z,99784.67
2019-04-21T12:28:59.698Z,99779.86
2019-04-21T12:31:43.786Z,99772.83
2019-04-21T12:34:12.103Z,99763.39
2019-04-21T12:36:39.965Z,99765.53
2019-04-21T12:39:08.403Z,99755.30
2019-04-21T12:41:34.315Z,99751.06
2019-04-21T12:44:02.647Z,99749.09
2019-04-21T12:46:30.086Z,99750.70
2019-04-21T12:48:58.063Z,99748.39
2019-04-21T12:51:25.999Z,99743.88
2019-04-21T12:53:54.325Z,99734.75
2019-04-21T12:56:23.290Z,99732.81
2019-04-21T12:58:49.607Z,99723.91
2019-04-21T13:01:17.150Z,99722.48
2019-04-21T13:03:45.828Z,99712.36
2019-04-21T13:06:13.905Z,99720.20
2019-04-21T13:08:51.857Z,99717.93
2019-04-21T13:11:09.701Z,99711.25
2019-04-21T13:13:35.765Z,99712.86
2019-04-21T13:16:03.317Z,99700.25
2019-04-21T13:18:31.265Z,99704.18
2019-04-21T13:21:00.750Z,99697.44
2019-04-21T13:23:27.146Z,99695.59
2019-04-21T13:25:55.988Z,99690.25
2019-04-21T13:28:22.910Z,99684.80
2019-04-21T13:30:50.673Z,99680.37
2019-04-21T13:33:17.234Z,99685.74
2019-04-21T13:35:44.864Z,99681.53
2019-04-21T13:38:24.246Z,99671.94
2019-04-21T13:40:58.311Z,99668.03
2019-04-21T13:43:10.731Z,99659.31
2019-04-21T13:45:37.494Z,99654.58
2019-04-21T13:48:06.459Z,99654.06
2019-04-21T13:50:33.414Z,99651.27
2019-04-21T13:53:00.917Z,99644.94
2019-04-21T13:55:29.714Z,99639.62
2019-04-21T13:57:56.892Z,99637.77
2019-04-21T14:00:24.280Z,99636.46
2019-04-21T14:02:52.504Z,99635.04
2019-04-21T14:05:20.294Z,99636.82
2019-04-21T14:07:48.054Z,99631.06
2019-04-21T14:10:16.076Z,99629.09
2019-04-21T14:12:42.845Z,99626.09
2019-04-21T14:15:10.399Z,99627.57
2019-04-21T14:17:39.118Z,99616.05
2019-04-21T14:20:05.401Z,99613.45
2019-04-21T14:22:33.978Z,99609.23
2019-04-21T14:25:03.687Z,99605.37
2019-04-21T14:27:30.330Z,99605.37
2019-04-21T14:29:57.809Z,99602.77
2019-04-21T14:32:26.537Z,99596.85
2019-04-21T14:34:54.055Z,99591.48
2019-04-21T14:37:20.516Z,99587.34
2019-04-21T14:39:55.888Z,99587.70
2019-04-21T14:42:16.010Z,99589.52
2019-04-21T14:44:42.970Z,99582.66
2019-04-21T14:47:16.119Z,99576.12
2019-04-21T14:49:44.973Z,99573.61
2019-04-21T14:52:16.636Z,99571.96
2019-04-21T14:54:47.001Z,99577.52
2019-04-21T14:57:15.544Z,99567.52
2019-04-21T14:59:42.840Z,99576.39
2019-04-21T15:02:09.895Z,99567.92
2019-04-21T15:04:37.702Z,99561.29
2019-04-21T15:07:05.579Z,99559.65
2019-04-21T15:09:35.595Z,99561.34
2019-04-21T15:12:00.313Z,99553.92
2019-04-21T15:14:27.773Z,99558.61
2019-04-21T15:16:56.729Z,99549.02
2019-04-21T15:19:22.792Z,99544.31
2019-04-21T15:21:50.350Z,99547.34
2019-04-21T15:24:18.352Z,99546.91
2019-04-21T15:26:46.432Z,99548.70
2019-04-21T15:29:12.957Z,99543.36
2019-04-21T15:31:43.118Z,99541.69
2019-04-21T15:34:07.950Z,99533.97
2019-04-21T15:36:35.644Z,99530.83
2019-04-21T15:39:03.604Z,99530.31
2019-04-21T15:41:30.713Z,99527.38
2019-04-21T15:44:01.028Z,99521.44
2019-04-21T15:46:26.780Z,99523.84
2019-04-21T15:48:53.463Z,99523.30
2019-04-21T15:51:21.971Z,99516.20
2019-04-21T15:53:49.814Z,99516.82
2019-04-21T15:56:31.043Z,99512.13
2019-04-21T15:58:58.981Z,99511.38
2019-04-21T16:01:28.278Z,99507.84
2019-04-21T16:03:58.668Z,99511.19
2019-04-21T16:06:23.426Z,99506.80
2019-04-21T16:08:53.824Z,99506.89
2019-04-21T16:11:18.160Z,99506.89
2019-04-21T16:13:45.905Z,99505.20
2019-04-21T16:16:14.560Z,99505.00
2019-04-21T16:18:40.640Z,99497.37
2019-04-21T16:21:08.271Z,99495.59
2019-04-21T16:23:36.182Z,99499.22
2019-04-21T16:26:04.388Z,99495.77
2019-04-21T16:28:31.163Z,99488.24
2019-04-21T16:30:58.495Z,99495.04
2019-04-21T16:33:27.052Z,99486.36
2019-04-21T16:35:53.753Z,99489.72
2019-04-21T16:38:21.639Z,99480.34
2019-04-21T16:40:55.611Z,99483.17
2019-04-21T16:43:16.337Z,99478.86
2019-04-21T16:45:44.446Z,99475.00
2019-04-21T16:48:10.906Z,99469.58
2019-04-21T16:50:39.495Z,99471.58
2019-04-21T16:53:08.152Z,99469.38
2019-04-21T16:55:37.155Z,99463.64
2019-04-21T16:58:23.097Z,99466.99
2019-04-21T17:01:02.720Z,99462.22
2019-04-21T17:03:24.341Z,99456.98
2019-04-21T17:05:51.806Z,99457.61
2019-04-21T17:08:19.767Z,99456.55
2019-04-21T17:11:00.149Z,99453.22
2019-04-21T17:13:13.997Z,99449.69
2019-04-21T17:15:55.477Z,99450.69
2019-04-21T17:18:25.574Z,99443.38
2019-04-21T17:20:45.045Z,99440.15
2019-04-21T17:23:04.020Z,99444.61
2019-04-21T17:25:32.077Z,99440.90
2019-04-21T17:27:58.775Z,99437.46
2019-04-21T17:30:28.353Z,99433.89
2019-04-21T17:32:55.467Z,99434.17
2019-04-21T17:35:22.779Z,99429.48
2019-04-21T17:37:50.084Z,99428.89
2019-04-21T17:40:24.088Z,99431.69
2019-04-21T17:42:56.683Z,99426.48
2019-04-21T17:45:19.274Z,99421.83
2019-04-21T17:47:52.447Z,99417.66
2019-04-21T17:50:17.791Z,99427.01
2019-04-21T17:52:55.536Z,99426.58
2019-04-21T17:55:27.522Z,99430.00
2019-04-21T17:58:03.362Z,99423.09
2019-04-21T18:00:57.433Z,99429.66
2019-04-21T18:03:01.939Z,99431.48
2019-04-21T18:05:32.144Z,99425.89
2019-04-21T18:07:54.833Z,99427.00
2019-04-21T18:10:24.655Z,99426.06
2019-04-21T18:12:43.562Z,99434.24
2019-04-21T18:15:18.115Z,99429.46
2019-04-21T18:17:28.724Z,99431.20
2019-04-21T18:19:57.119Z,99432.72
2019-04-21T18:22:44.310Z,99430.81
2019-04-21T18:25:12.586Z,99430.44
2019-04-21T18:27:36.609Z,99428.32
2019-04-21T18:30:04.261Z,99433.03
2019-04-21T18:32:35.346Z,99431.34
2019-04-21T18:35:14.176Z,99429.42
2019-04-21T18:38:04.551Z,99430.67
2019-04-21T18:40:29.673Z,99424.17
2019-04-21T18:43:30.876Z,99423.95
2019-04-21T18:48:04.968Z,99431.75
2019-04-21T18:50:47.820Z,99426.56
2019-04-21T18:53:23.924Z,99424.03
2019-04-21T18:55:46.696Z,99427.58
2019-04-21T18:58:11.841Z,99421.33
2019-04-21T19:00:39.802Z,99428.13
2019-04-21T19:03:04.178Z,99420.30
2019-04-21T19:05:32.260Z,99427.44
2019-04-21T19:08:14.740Z,99426.38
2019-04-21T19:10:47.743Z,99429.66
2019-04-21T19:13:38.065Z,99429.87
2019-04-21T19:15:41.373Z,99425.03
2019-04-21T19:18:35.698Z,99428.34
2019-04-21T19:20:34.900Z,99429.05
2019-04-21T19:23:06.822Z,99425.49
2019-04-21T19:25:31.521Z,99434.38
2019-04-21T19:27:59.027Z,99429.41
2019-04-21T19:30:38.511Z,99425.50
2019-04-21T19:32:58.057Z,99430.34
2019-04-21T19:35:09.353Z,99422.20
2019-04-21T19:37:45.192Z,99426.98
2019-04-21T19:40:18.020Z,99421.67
2019-04-21T19:42:39.979Z,99426.05
2019-04-21T19:45:19.247Z,99419.45
2019-04-21T19:47:50.425Z,99422.47
2019-04-21T19:50:19.398Z,99421.17
2019-04-21T19:52:33.110Z,99415.52
2019-04-21T19:54:52.579Z,99411.59
2019-04-21T19:57:20.911Z,99414.30
2019-04-21T19:59:53.223Z,99419.62
2019-04-21T20:02:18.614Z,99404.54
2019-04-21T20:04:53.456Z,99406.73
2019-04-21T20:07:26.258Z,99407.43
2019-04-21T20:10:03.494Z,99404.02
2019-04-21T20:12:38.169Z,99402.91
2019-04-21T20:14:59.368Z,99402.19
2019-04-21T20:17:17.641Z,99399.34
2019-04-21T20:19:32.314Z,99398.05
2019-04-21T20:22:00.923Z,99393.70
2019-04-21T20:24:30.261Z,99388.00
2019-04-21T20:27:03.534Z,99386.81
2019-04-21T20:29:46.960Z,99383.92
2019-04-21T20:32:08.361Z,99390.13
2019-04-21T20:34:40.014Z,99386.39
2019-04-21T20:37:02.083Z,99387.50
2019-04-21T20:39:19.352Z,99383.54
2019-04-21T20:41:54.042Z,99381.25
2019-04-21T20:44:28.206Z,99386.13
2019-04-21T20:46:49.337Z,99378.91
2019-04-21T20:49:15.416Z,99381.53
2019-04-21T20:51:54.351Z,99385.11
2019-04-21T20:54:17.315Z,99385.41
2019-04-21T20:56:45.174Z,99380.12
2019-04-21T20:59:12.104Z,99384.72
2019-04-21T21:01:55.392Z,99381.47
2019-04-21T21:04:07.419Z,99381.41
2019-04-21T21:06:36.155Z,99376.94
2019-04-21T21:09:04.790Z,99377.76
2019-04-21T21:14:17.621Z,99369.56
2019-04-21T21:17:31.721Z,99367.89
2019-04-21T21:19:35.134Z,99362.49
2019-04-21T21:21:56.357Z,99368.95
2019-04-21T21:24:46.126Z,99367.86
2019-04-21T21:27:10.326Z,99365.73
2019-04-21T21:29:41.791Z,99363.07
2019-04-21T21:32:16.233Z,99362.38
2019-04-21T21:34:45.388Z,99367.44
2019-04-21T21:37:21.658Z,99356.78
2019-04-21T21:42:13.421Z,99363.83
2019-04-21T21:44:49.567Z,99363.16
2019-04-21T21:47:31.909Z,99364.70
2019-04-21T21:49:58.183Z,99361.02
2019-04-21T21:52:36.749Z,99357.30
2019-04-21T21:54:51.929Z,99355.27
2019-04-21T21:57:28.429Z,99351.45
2019-04-21T22:00:12.345Z,99355.48
2019-04-21T22:02:47.670Z,99351.48
2019-04-21T22:05:22.035Z,99351.08
2019-04-21T22:07:49.316Z,99356.92
2019-04-21T22:10:20.181Z,99350.20
2019-04-21T22:13:00.756Z,99358.35
2019-04-21T22:15:26.775Z,99349.23
2019-04-21T22:18:15.046Z,99349.95
2019-04-21T22:20:42.147Z,99350.38
2019-04-21T22:23:08.758Z,99347.01
2019-04-21T22:28:07.441Z,99348.69
2019-04-21T22:33:17.738Z,99343.13
2019-04-21T22:35:50.411Z,99342.52
2019-04-21T22:41:10.627Z,99344.23
2019-04-21T22:43:43.902Z,99347.42
2019-04-21T22:46:15.333Z,99343.80
2019-04-21T22:48:51.738Z,99338.26
2019-04-21T22:51:26.603Z,99337.55
2019-04-21T22:53:55.487Z,99337.89
2019-04-21T23:01:47.463Z,99336.68
2019-04-21T23:04:12.414Z,99340.36
2019-04-21T23:09:24.546Z,99333.55
2019-04-21T23:12:00.004Z,99335.73
2019-04-21T23:14:32.473Z,99331.40
2019-04-21T23:17:29.803Z,99326.20
2019-04-21T23:20:10.246Z,99329.16
2019-04-21T23:22:59.662Z,99321.44
2019-04-21T23:25:22.278Z,99326.67
2019-04-21T23:27:56.408Z,99329.33
2019-04-21T23:30:33.568Z,99327.48
2019-04-21T23:32:51.404Z,99314.80
2019-04-21T23:35:24.927Z,99320.84
2019-04-21T23:37:55.723Z,99318.61
2019-04-21T23:40:25.258Z,99305.35
2019-04-21T23:45:39.233Z,99312.12
2019-04-21T23:48:23.524Z,99310.53
2019-04-21T23:50:46.627Z,99309.61
2019-04-21T23:53:15.494Z,99305.17
2019-04-21T23:55:50.679Z,99302.73
2019-04-21T23:58:26.403Z,99291.16
